sensor_id;sensor_type;location;lat;lon;timestamp;P1;durP1;ratioP1;P2;durP2;ratioP2
2620;SDS011;1320;48.128;11.592;2024-03-22T00:01:49;18.97;;;14.20;;
2620;SDS011;1320;48.128;11.592;2024-03-22T00:04:15;16.70;;;13.63;;
2620;SDS011;1320;48.128;11.592;2024-03-22T00:06:41;20.17;;;13.40;;
2620;SDS011;1320;48.128;11.592;2024-03-22T00:09:08;19.60;;;13.60;;
2620;SDS011;1320;48.128;11.592;2024-03-22T00:11:34;21.07;;;14.80;;
2620;SDS011;1320;48.128;11.592;2024-03-22T00:14:01;21.03;;;14.63;;
2620;SDS011;1320;48.128;11.592;2024-03-22T00:16:27;19.97;;;14.53;;
2620;SDS011;1320;48.128;11.592;2024-03-22T00:18:53;20.10;;;14.60;;
2620;SDS011;1320;48.128;11.592;2024-03-22T00:21:18;22.27;;;13.77;;
2620;SDS011;1320;48.128;11.592;2024-03-22T00:23:44;18.57;;;12.80;;
2620;SDS011;1320;48.128;11.592;2024-03-22T00:26:10;19.00;;;12.90;;
2620;SDS011;1320;48.128;11.592;2024-03-22T00:28:36;20.00;;;13.90;;
2620;SDS011;1320;48.128;11.592;2024-03-22T00:31:02;20.30;;;14.63;;
2620;SDS011;1320;48.128;11.592;2024-03-22T00:33:28;23.17;;;14.13;;
2620;SDS011;1320;48.128;11.592;2024-03-22T00:35:53;21.90;;;13.57;;
2620;SDS011;1320;48.128;11.592;2024-03-22T00:38:19;24.37;;;15.87;;
2620;SDS011;1320;48.128;11.592;2024-03-22T00:40:45;21.30;;;13.40;;
2620;SDS011;1320;48.128;11.592;2024-03-22T00:43:11;20.70;;;14.37;;
2620;SDS011;1320;48.128;11.592;2024-03-22T00:45:36;19.70;;;13.93;;
2620;SDS011;1320;48.128;11.592;2024-03-22T00:48:02;23.00;;;14.47;;
2620;SDS011;1320;48.128;11.592;2024-03-22T00:50:30;22.43;;;13.27;;
2620;SDS011;1320;48.128;11.592;2024-03-22T00:52:56;27.83;;;15.30;;
2620;SDS011;1320;48.128;11.592;2024-03-22T00:55:22;21.70;;;14.80;;
2620;SDS011;1320;48.128;11.592;2024-03-22T00:57:48;23.30;;;16.27;;
2620;SDS011;1320;48.128;11.592;2024-03-22T01:00:14;20.00;;;14.40;;
2620;SDS011;1320;48.128;11.592;2024-03-22T01:02:41;25.60;;;15.03;;
2620;SDS011;1320;48.128;11.592;2024-03-22T01:05:07;19.73;;;13.90;;
2620;SDS011;1320;48.128;11.592;2024-03-22T01:07:33;21.70;;;14.50;;
2620;SDS011;1320;48.128;11.592;2024-03-22T01:09:59;19.23;;;14.13;;
2620;SDS011;1320;48.128;11.592;2024-03-22T01:12:25;21.47;;;14.50;;
2620;SDS011;1320;48.128;11.592;2024-03-22T01:14:50;20.60;;;14.73;;
2620;SDS011;1320;48.128;11.592;2024-03-22T01:17:16;19.40;;;14.13;;
2620;SDS011;1320;48.128;11.592;2024-03-22T01:19:42;22.70;;;14.33;;
2620;SDS011;1320;48.128;11.592;2024-03-22T01:22:08;19.40;;;12.70;;
2620;SDS011;1320;48.128;11.592;2024-03-22T01:24:33;22.27;;;15.27;;
2620;SDS011;1320;48.128;11.592;2024-03-22T01:26:59;22.57;;;14.70;;
2620;SDS011;1320;48.128;11.592;2024-03-22T01:29:25;18.27;;;13.00;;
2620;SDS011;1320;48.128;11.592;2024-03-22T01:31:52;21.53;;;13.53;;
2620;SDS011;1320;48.128;11.592;2024-03-22T01:34:18;20.47;;;13.47;;
2620;SDS011;1320;48.128;11.592;2024-03-22T01:36:44;22.67;;;13.40;;
2620;SDS011;1320;48.128;11.592;2024-03-22T01:39:10;22.17;;;14.80;;
2620;SDS011;1320;48.128;11.592;2024-03-22T01:41:36;19.53;;;12.90;;
2620;SDS011;1320;48.128;11.592;2024-03-22T01:44:02;21.93;;;15.27;;
2620;SDS011;1320;48.128;11.592;2024-03-22T01:46:28;21.00;;;13.40;;
2620;SDS011;1320;48.128;11.592;2024-03-22T01:48:53;18.20;;;12.53;;
2620;SDS011;1320;48.128;11.592;2024-03-22T01:51:19;21.13;;;12.93;;
2620;SDS011;1320;48.128;11.592;2024-03-22T01:53:45;18.63;;;12.70;;
2620;SDS011;1320;48.128;11.592;2024-03-22T01:56:11;20.10;;;13.70;;
2620;SDS011;1320;48.128;11.592;2024-03-22T01:58:36;19.70;;;12.23;;
2620;SDS011;1320;48.128;11.592;2024-03-22T02:01:02;23.77;;;14.03;;
2620;SDS011;1320;48.128;11.592;2024-03-22T02:03:28;19.97;;;12.47;;
2620;SDS011;1320;48.128;11.592;2024-03-22T02:05:54;21.90;;;13.13;;
2620;SDS011;1320;48.128;11.592;2024-03-22T02:08:20;21.13;;;13.37;;
2620;SDS011;1320;48.128;11.592;2024-03-22T02:10:46;21.73;;;12.90;;
2620;SDS011;1320;48.128;11.592;2024-03-22T02:13:12;25.07;;;15.37;;
2620;SDS011;1320;48.128;11.592;2024-03-22T02:15:38;18.63;;;12.30;;
2620;SDS011;1320;48.128;11.592;2024-03-22T02:18:04;20.50;;;13.57;;
2620;SDS011;1320;48.128;11.592;2024-03-22T02:20:29;18.30;;;13.43;;
2620;SDS011;1320;48.128;11.592;2024-03-22T02:22:55;24.73;;;16.10;;
2620;SDS011;1320;48.128;11.592;2024-03-22T02:25:21;21.63;;;13.07;;
2620;SDS011;1320;48.128;11.592;2024-03-22T02:27:47;18.87;;;13.60;;
2620;SDS011;1320;48.128;11.592;2024-03-22T02:30:15;25.20;;;15.20;;
2620;SDS011;1320;48.128;11.592;2024-03-22T02:32:42;21.63;;;13.90;;
2620;SDS011;1320;48.128;11.592;2024-03-22T02:35:08;22.37;;;15.50;;
2620;SDS011;1320;48.128;11.592;2024-03-22T02:37:33;21.50;;;14.17;;
2620;SDS011;1320;48.128;11.592;2024-03-22T02:39:59;25.73;;;15.03;;
2620;SDS011;1320;48.128;11.592;2024-03-22T02:42:25;23.90;;;14.80;;
2620;SDS011;1320;48.128;11.592;2024-03-22T02:44:51;22.77;;;13.50;;
2620;SDS011;1320;48.128;11.592;2024-03-22T02:47:17;25.77;;;14.30;;
2620;SDS011;1320;48.128;11.592;2024-03-22T02:49:43;23.00;;;13.63;;
2620;SDS011;1320;48.128;11.592;2024-03-22T02:52:09;21.30;;;15.40;;
2620;SDS011;1320;48.128;11.592;2024-03-22T02:54:34;24.37;;;15.00;;
2620;SDS011;1320;48.128;11.592;2024-03-22T02:57:00;23.27;;;14.13;;
2620;SDS011;1320;48.128;11.592;2024-03-22T02:59:27;20.70;;;13.13;;
2620;SDS011;1320;48.128;11.592;2024-03-22T03:01:53;21.00;;;13.90;;
2620;SDS011;1320;48.128;11.592;2024-03-22T03:04:19;23.90;;;13.43;;
2620;SDS011;1320;48.128;11.592;2024-03-22T03:06:44;19.33;;;13.37;;
2620;SDS011;1320;48.128;11.592;2024-03-22T03:09:10;23.30;;;13.90;;
2620;SDS011;1320;48.128;11.592;2024-03-22T03:11:38;23.70;;;14.93;;
2620;SDS011;1320;48.128;11.592;2024-03-22T03:14:06;31.37;;;15.90;;
2620;SDS011;1320;48.128;11.592;2024-03-22T03:16:32;20.00;;;13.63;;
2620;SDS011;1320;48.128;11.592;2024-03-22T03:18:58;23.80;;;15.37;;
2620;SDS011;1320;48.128;11.592;2024-03-22T03:21:24;25.10;;;14.43;;
2620;SDS011;1320;48.128;11.592;2024-03-22T03:23:49;22.43;;;16.10;;
2620;SDS011;1320;48.128;11.592;2024-03-22T03:26:15;22.80;;;15.10;;
2620;SDS011;1320;48.128;11.592;2024-03-22T03:28:41;21.60;;;14.93;;
2620;SDS011;1320;48.128;11.592;2024-03-22T03:31:07;20.27;;;13.77;;
2620;SDS011;1320;48.128;11.592;2024-03-22T03:33:33;21.90;;;15.00;;
2620;SDS011;1320;48.128;11.592;2024-03-22T03:35:58;24.63;;;14.70;;
2620;SDS011;1320;48.128;11.592;2024-03-22T03:38:24;21.83;;;14.70;;
2620;SDS011;1320;48.128;11.592;2024-03-22T03:40:50;24.47;;;15.77;;
2620;SDS011;1320;48.128;11.592;2024-03-22T03:43:15;24.37;;;15.70;;
2620;SDS011;1320;48.128;11.592;2024-03-22T03:45:41;25.37;;;15.00;;
2620;SDS011;1320;48.128;11.592;2024-03-22T03:48:07;24.53;;;15.70;;
2620;SDS011;1320;48.128;11.592;2024-03-22T03:50:35;21.17;;;15.10;;
2620;SDS011;1320;48.128;11.592;2024-03-22T03:53:01;23.97;;;16.17;;
2620;SDS011;1320;48.128;11.592;2024-03-22T03:55:27;21.97;;;14.97;;
2620;SDS011;1320;48.128;11.592;2024-03-22T03:57:53;29.20;;;16.87;;
2620;SDS011;1320;48.128;11.592;2024-03-22T04:00:21;22.10;;;15.60;;
2620;SDS011;1320;48.128;11.592;2024-03-22T04:02:50;22.97;;;14.43;;
2620;SDS011;1320;48.128;11.592;2024-03-22T04:05:16;25.33;;;14.20;;
2620;SDS011;1320;48.128;11.592;2024-03-22T04:07:41;24.10;;;14.97;;
2620;SDS011;1320;48.128;11.592;2024-03-22T04:10:08;23.30;;;15.53;;
2620;SDS011;1320;48.128;11.592;2024-03-22T04:12:33;25.77;;;14.97;;
2620;SDS011;1320;48.128;11.592;2024-03-22T04:14:59;23.97;;;14.73;;
2620;SDS011;1320;48.128;11.592;2024-03-22T04:17:25;21.47;;;15.73;;
2620;SDS011;1320;48.128;11.592;2024-03-22T04:19:51;21.27;;;15.23;;
2620;SDS011;1320;48.128;11.592;2024-03-22T04:22:17;21.37;;;16.13;;
2620;SDS011;1320;48.128;11.592;2024-03-22T04:24:43;21.80;;;14.20;;
2620;SDS011;1320;48.128;11.592;2024-03-22T04:27:08;24.63;;;14.47;;
2620;SDS011;1320;48.128;11.592;2024-03-22T04:29:34;21.10;;;14.13;;
2620;SDS011;1320;48.128;11.592;2024-03-22T04:32:00;22.50;;;13.83;;
2620;SDS011;1320;48.128;11.592;2024-03-22T04:34:26;23.73;;;14.97;;
2620;SDS011;1320;48.128;11.592;2024-03-22T04:36:51;20.40;;;13.00;;
2620;SDS011;1320;48.128;11.592;2024-03-22T04:39:19;23.17;;;14.20;;
2620;SDS011;1320;48.128;11.592;2024-03-22T04:41:45;22.97;;;14.13;;
2620;SDS011;1320;48.128;11.592;2024-03-22T04:44:10;24.63;;;15.03;;
2620;SDS011;1320;48.128;11.592;2024-03-22T04:46:36;24.60;;;14.60;;
2620;SDS011;1320;48.128;11.592;2024-03-22T04:49:02;24.57;;;14.20;;
2620;SDS011;1320;48.128;11.592;2024-03-22T04:51:28;21.60;;;14.27;;
2620;SDS011;1320;48.128;11.592;2024-03-22T04:53:53;19.80;;;13.00;;
2620;SDS011;1320;48.128;11.592;2024-03-22T04:56:19;22.70;;;15.40;;
2620;SDS011;1320;48.128;11.592;2024-03-22T04:58:45;21.23;;;14.57;;
2620;SDS011;1320;48.128;11.592;2024-03-22T05:01:11;21.17;;;13.10;;
2620;SDS011;1320;48.128;11.592;2024-03-22T05:03:37;19.97;;;14.33;;
2620;SDS011;1320;48.128;11.592;2024-03-22T05:06:03;21.50;;;13.13;;
2620;SDS011;1320;48.128;11.592;2024-03-22T05:08:31;16.97;;;12.20;;
2620;SDS011;1320;48.128;11.592;2024-03-22T05:10:57;22.07;;;13.03;;
2620;SDS011;1320;48.128;11.592;2024-03-22T05:13:23;21.40;;;12.37;;
2620;SDS011;1320;48.128;11.592;2024-03-22T05:15:49;21.83;;;12.33;;
2620;SDS011;1320;48.128;11.592;2024-03-22T05:18:14;19.23;;;12.73;;
2620;SDS011;1320;48.128;11.592;2024-03-22T05:20:40;19.50;;;13.07;;
2620;SDS011;1320;48.128;11.592;2024-03-22T05:23:06;19.40;;;13.33;;
2620;SDS011;1320;48.128;11.592;2024-03-22T05:25:31;22.03;;;13.20;;
2620;SDS011;1320;48.128;11.592;2024-03-22T05:27:57;19.23;;;13.43;;
2620;SDS011;1320;48.128;11.592;2024-03-22T05:30:23;15.73;;;10.20;;
2620;SDS011;1320;48.128;11.592;2024-03-22T05:32:49;17.80;;;12.47;;
2620;SDS011;1320;48.128;11.592;2024-03-22T05:35:15;19.20;;;11.30;;
2620;SDS011;1320;48.128;11.592;2024-03-22T05:37:41;21.10;;;11.93;;
2620;SDS011;1320;48.128;11.592;2024-03-22T05:40:07;18.47;;;12.57;;
2620;SDS011;1320;48.128;11.592;2024-03-22T05:42:34;19.00;;;13.00;;
2620;SDS011;1320;48.128;11.592;2024-03-22T05:44:59;16.53;;;11.53;;
2620;SDS011;1320;48.128;11.592;2024-03-22T05:47:25;16.00;;;11.07;;
2620;SDS011;1320;48.128;11.592;2024-03-22T05:49:51;16.10;;;11.60;;
2620;SDS011;1320;48.128;11.592;2024-03-22T05:52:17;15.80;;;11.37;;
2620;SDS011;1320;48.128;11.592;2024-03-22T05:54:43;18.73;;;10.60;;
2620;SDS011;1320;48.128;11.592;2024-03-22T05:57:09;16.90;;;11.30;;
2620;SDS011;1320;48.128;11.592;2024-03-22T05:59:35;15.70;;;10.40;;
2620;SDS011;1320;48.128;11.592;2024-03-22T06:02:01;17.10;;;10.70;;
2620;SDS011;1320;48.128;11.592;2024-03-22T06:04:27;16.10;;;10.50;;
2620;SDS011;1320;48.128;11.592;2024-03-22T06:06:53;13.80;;;9.40;;
2620;SDS011;1320;48.128;11.592;2024-03-22T06:09:19;16.33;;;10.67;;
2620;SDS011;1320;48.128;11.592;2024-03-22T06:12:00;16.03;;;9.60;;
2620;SDS011;1320;48.128;11.592;2024-03-22T06:14:27;18.00;;;10.23;;
2620;SDS011;1320;48.128;11.592;2024-03-22T06:16:53;17.20;;;10.37;;
2620;SDS011;1320;48.128;11.592;2024-03-22T06:19:19;14.40;;;9.97;;
2620;SDS011;1320;48.128;11.592;2024-03-22T06:21:44;16.13;;;10.47;;
2620;SDS011;1320;48.128;11.592;2024-03-22T06:24:10;13.70;;;9.30;;
2620;SDS011;1320;48.128;11.592;2024-03-22T06:26:36;12.50;;;9.30;;
2620;SDS011;1320;48.128;11.592;2024-03-22T06:29:02;14.30;;;10.70;;
2620;SDS011;1320;48.128;11.592;2024-03-22T06:31:28;24.07;;;11.00;;
2620;SDS011;1320;48.128;11.592;2024-03-22T06:33:54;14.23;;;10.00;;
2620;SDS011;1320;48.128;11.592;2024-03-22T06:36:21;12.80;;;9.30;;
2620;SDS011;1320;48.128;11.592;2024-03-22T06:38:47;15.63;;;10.63;;
2620;SDS011;1320;48.128;11.592;2024-03-22T06:41:13;15.00;;;9.67;;
2620;SDS011;1320;48.128;11.592;2024-03-22T06:43:38;13.83;;;9.20;;
2620;SDS011;1320;48.128;11.592;2024-03-22T06:46:06;16.00;;;11.17;;
2620;SDS011;1320;48.128;11.592;2024-03-22T06:48:31;14.37;;;9.80;;
2620;SDS011;1320;48.128;11.592;2024-03-22T06:50:57;13.03;;;9.10;;
2620;SDS011;1320;48.128;11.592;2024-03-22T06:53:23;14.30;;;9.87;;
2620;SDS011;1320;48.128;11.592;2024-03-22T06:55:48;16.80;;;9.80;;
2620;SDS011;1320;48.128;11.592;2024-03-22T06:58:14;14.03;;;9.90;;
2620;SDS011;1320;48.128;11.592;2024-03-22T07:00:40;14.97;;;9.87;;
2620;SDS011;1320;48.128;11.592;2024-03-22T07:03:05;12.80;;;8.90;;
2620;SDS011;1320;48.128;11.592;2024-03-22T07:05:31;16.80;;;9.57;;
2620;SDS011;1320;48.128;11.592;2024-03-22T07:07:57;13.00;;;8.63;;
2620;SDS011;1320;48.128;11.592;2024-03-22T07:10:23;13.00;;;8.40;;
2620;SDS011;1320;48.128;11.592;2024-03-22T07:12:55;15.00;;;9.90;;
2620;SDS011;1320;48.128;11.592;2024-03-22T07:15:22;14.87;;;10.10;;
2620;SDS011;1320;48.128;11.592;2024-03-22T07:17:49;12.57;;;8.33;;
2620;SDS011;1320;48.128;11.592;2024-03-22T07:20:15;13.60;;;9.10;;
2620;SDS011;1320;48.128;11.592;2024-03-22T07:22:41;15.00;;;9.10;;
2620;SDS011;1320;48.128;11.592;2024-03-22T07:25:07;13.10;;;8.03;;
2620;SDS011;1320;48.128;11.592;2024-03-22T07:27:36;13.50;;;9.20;;
2620;SDS011;1320;48.128;11.592;2024-03-22T07:30:02;11.10;;;7.80;;
2620;SDS011;1320;48.128;11.592;2024-03-22T07:32:29;12.80;;;8.33;;
2620;SDS011;1320;48.128;11.592;2024-03-22T07:34:55;12.37;;;8.90;;
2620;SDS011;1320;48.128;11.592;2024-03-22T07:37:20;13.03;;;8.83;;
2620;SDS011;1320;48.128;11.592;2024-03-22T07:39:46;13.20;;;8.53;;
2620;SDS011;1320;48.128;11.592;2024-03-22T07:42:12;12.77;;;8.27;;
2620;SDS011;1320;48.128;11.592;2024-03-22T07:44:38;11.97;;;8.53;;
2620;SDS011;1320;48.128;11.592;2024-03-22T07:47:04;12.13;;;8.40;;
2620;SDS011;1320;48.128;11.592;2024-03-22T07:49:30;12.77;;;7.80;;
2620;SDS011;1320;48.128;11.592;2024-03-22T07:51:56;13.30;;;8.40;;
2620;SDS011;1320;48.128;11.592;2024-03-22T07:54:22;13.20;;;7.50;;
2620;SDS011;1320;48.128;11.592;2024-03-22T07:56:50;10.83;;;8.10;;
2620;SDS011;1320;48.128;11.592;2024-03-22T07:59:16;10.80;;;7.90;;
2620;SDS011;1320;48.128;11.592;2024-03-22T08:01:41;12.80;;;8.20;;
2620;SDS011;1320;48.128;11.592;2024-03-22T08:04:07;14.30;;;8.70;;
2620;SDS011;1320;48.128;11.592;2024-03-22T08:06:33;12.20;;;7.47;;
2620;SDS011;1320;48.128;11.592;2024-03-22T08:08:58;13.37;;;7.93;;
2620;SDS011;1320;48.128;11.592;2024-03-22T08:11:24;13.03;;;8.07;;
2620;SDS011;1320;48.128;11.592;2024-03-22T08:13:51;10.93;;;7.60;;
2620;SDS011;1320;48.128;11.592;2024-03-22T08:16:17;10.37;;;7.17;;
2620;SDS011;1320;48.128;11.592;2024-03-22T08:18:44;11.10;;;7.37;;
2620;SDS011;1320;48.128;11.592;2024-03-22T08:21:10;12.50;;;7.97;;
2620;SDS011;1320;48.128;11.592;2024-03-22T08:23:36;11.50;;;7.77;;
2620;SDS011;1320;48.128;11.592;2024-03-22T08:26:01;8.40;;;7.10;;
2620;SDS011;1320;48.128;11.592;2024-03-22T08:28:28;8.73;;;6.73;;
2620;SDS011;1320;48.128;11.592;2024-03-22T08:30:54;9.67;;;7.13;;
2620;SDS011;1320;48.128;11.592;2024-03-22T08:33:20;12.40;;;6.87;;
2620;SDS011;1320;48.128;11.592;2024-03-22T08:35:45;9.50;;;7.27;;
2620;SDS011;1320;48.128;11.592;2024-03-22T08:38:11;7.47;;;6.40;;
2620;SDS011;1320;48.128;11.592;2024-03-22T08:40:39;12.00;;;6.90;;
2620;SDS011;1320;48.128;11.592;2024-03-22T08:43:05;9.80;;;7.13;;
2620;SDS011;1320;48.128;11.592;2024-03-22T08:45:34;8.70;;;6.50;;
2620;SDS011;1320;48.128;11.592;2024-03-22T08:48:00;10.33;;;6.90;;
2620;SDS011;1320;48.128;11.592;2024-03-22T08:50:26;11.13;;;5.40;;
2620;SDS011;1320;48.128;11.592;2024-03-22T08:52:52;7.90;;;6.33;;
2620;SDS011;1320;48.128;11.592;2024-03-22T08:55:18;9.23;;;7.33;;
2620;SDS011;1320;48.128;11.592;2024-03-22T08:57:44;9.00;;;6.77;;
2620;SDS011;1320;48.128;11.592;2024-03-22T09:00:10;8.40;;;5.80;;
2620;SDS011;1320;48.128;11.592;2024-03-22T09:02:37;7.40;;;5.30;;
2620;SDS011;1320;48.128;11.592;2024-03-22T09:05:04;7.30;;;5.07;;
2620;SDS011;1320;48.128;11.592;2024-03-22T09:07:30;6.90;;;5.37;;
2620;SDS011;1320;48.128;11.592;2024-03-22T09:09:56;8.50;;;5.60;;
2620;SDS011;1320;48.128;11.592;2024-03-22T09:12:22;8.63;;;6.50;;
2620;SDS011;1320;48.128;11.592;2024-03-22T09:14:47;8.43;;;6.47;;
2620;SDS011;1320;48.128;11.592;2024-03-22T09:17:13;8.33;;;5.33;;
2620;SDS011;1320;48.128;11.592;2024-03-22T09:19:39;8.43;;;5.70;;
2620;SDS011;1320;48.128;11.592;2024-03-22T09:22:05;9.23;;;6.70;;
2620;SDS011;1320;48.128;11.592;2024-03-22T09:24:31;9.90;;;7.20;;
2620;SDS011;1320;48.128;11.592;2024-03-22T09:26:56;8.27;;;6.30;;
2620;SDS011;1320;48.128;11.592;2024-03-22T09:29:24;10.43;;;6.10;;
2620;SDS011;1320;48.128;11.592;2024-03-22T09:31:49;9.50;;;5.60;;
2620;SDS011;1320;48.128;11.592;2024-03-22T09:34:18;8.23;;;5.37;;
2620;SDS011;1320;48.128;11.592;2024-03-22T09:36:44;9.03;;;5.60;;
2620;SDS011;1320;48.128;11.592;2024-03-22T09:39:10;8.67;;;5.73;;
2620;SDS011;1320;48.128;11.592;2024-03-22T09:41:39;12.87;;;6.17;;
2620;SDS011;1320;48.128;11.592;2024-03-22T09:44:08;8.83;;;6.33;;
2620;SDS011;1320;48.128;11.592;2024-03-22T09:46:38;6.30;;;4.70;;
2620;SDS011;1320;48.128;11.592;2024-03-22T09:49:07;7.23;;;5.00;;
2620;SDS011;1320;48.128;11.592;2024-03-22T09:51:37;7.27;;;4.60;;
2620;SDS011;1320;48.128;11.592;2024-03-22T09:54:03;7.90;;;4.50;;
2620;SDS011;1320;48.128;11.592;2024-03-22T09:56:30;9.57;;;5.30;;
2620;SDS011;1320;48.128;11.592;2024-03-22T09:58:57;10.53;;;4.73;;
2620;SDS011;1320;48.128;11.592;2024-03-22T10:01:26;12.13;;;6.20;;
2620;SDS011;1320;48.128;11.592;2024-03-22T10:03:52;7.27;;;4.97;;
2620;SDS011;1320;48.128;11.592;2024-03-22T10:06:18;8.10;;;5.27;;
2620;SDS011;1320;48.128;11.592;2024-03-22T10:08:44;6.17;;;4.43;;
2620;SDS011;1320;48.128;11.592;2024-03-22T10:11:10;8.00;;;5.30;;
2620;SDS011;1320;48.128;11.592;2024-03-22T10:13:36;6.30;;;4.43;;
2620;SDS011;1320;48.128;11.592;2024-03-22T10:16:02;9.23;;;5.10;;
2620;SDS011;1320;48.128;11.592;2024-03-22T10:18:28;7.00;;;4.10;;
2620;SDS011;1320;48.128;11.592;2024-03-22T10:21:00;7.40;;;4.50;;
2620;SDS011;1320;48.128;11.592;2024-03-22T10:23:27;7.37;;;4.93;;
2620;SDS011;1320;48.128;11.592;2024-03-22T10:25:53;8.10;;;4.90;;
2620;SDS011;1320;48.128;11.592;2024-03-22T10:28:21;10.53;;;5.70;;
2620;SDS011;1320;48.128;11.592;2024-03-22T10:30:47;8.17;;;5.30;;
2620;SDS011;1320;48.128;11.592;2024-03-22T10:33:15;8.23;;;5.03;;
2620;SDS011;1320;48.128;11.592;2024-03-22T10:35:43;10.10;;;5.23;;
2620;SDS011;1320;48.128;11.592;2024-03-22T10:38:11;6.50;;;4.37;;
2620;SDS011;1320;48.128;11.592;2024-03-22T10:40:38;8.17;;;5.40;;
2620;SDS011;1320;48.128;11.592;2024-03-22T10:43:07;6.50;;;4.57;;
2620;SDS011;1320;48.128;11.592;2024-03-22T10:45:33;7.20;;;4.83;;
2620;SDS011;1320;48.128;11.592;2024-03-22T10:48:00;6.80;;;5.13;;
2620;SDS011;1320;48.128;11.592;2024-03-22T10:50:28;9.40;;;5.20;;
2620;SDS011;1320;48.128;11.592;2024-03-22T10:53:01;6.97;;;4.07;;
2620;SDS011;1320;48.128;11.592;2024-03-22T10:55:35;9.97;;;4.83;;
2620;SDS011;1320;48.128;11.592;2024-03-22T10:58:04;10.57;;;5.40;;
2620;SDS011;1320;48.128;11.592;2024-03-22T11:00:31;7.60;;;4.30;;
2620;SDS011;1320;48.128;11.592;2024-03-22T11:02:58;6.97;;;4.77;;
2620;SDS011;1320;48.128;11.592;2024-03-22T11:05:27;6.50;;;4.90;;
2620;SDS011;1320;48.128;11.592;2024-03-22T11:08:26;8.10;;;5.30;;
2620;SDS011;1320;48.128;11.592;2024-03-22T11:10:52;9.40;;;5.67;;
2620;SDS011;1320;48.128;11.592;2024-03-22T11:13:18;9.13;;;4.97;;
2620;SDS011;1320;48.128;11.592;2024-03-22T11:15:46;7.90;;;4.30;;
2620;SDS011;1320;48.128;11.592;2024-03-22T11:18:13;9.63;;;5.00;;
2620;SDS011;1320;48.128;11.592;2024-03-22T11:20:41;9.43;;;5.67;;
2620;SDS011;1320;48.128;11.592;2024-03-22T11:23:07;7.33;;;4.93;;
2620;SDS011;1320;48.128;11.592;2024-03-22T11:25:34;7.23;;;5.07;;
2620;SDS011;1320;48.128;11.592;2024-03-22T11:28:00;6.43;;;4.60;;
2620;SDS011;1320;48.128;11.592;2024-03-22T11:30:30;7.30;;;4.70;;
2620;SDS011;1320;48.128;11.592;2024-03-22T11:32:57;7.03;;;4.43;;
2620;SDS011;1320;48.128;11.592;2024-03-22T11:35:30;7.57;;;4.80;;
2620;SDS011;1320;48.128;11.592;2024-03-22T11:37:56;8.40;;;5.83;;
2620;SDS011;1320;48.128;11.592;2024-03-22T11:40:23;5.97;;;4.33;;
2620;SDS011;1320;48.128;11.592;2024-03-22T11:42:51;8.43;;;5.50;;
2620;SDS011;1320;48.128;11.592;2024-03-22T11:45:19;6.90;;;5.00;;
2620;SDS011;1320;48.128;11.592;2024-03-22T11:47:46;8.50;;;4.53;;
2620;SDS011;1320;48.128;11.592;2024-03-22T11:50:12;7.37;;;5.57;;
2620;SDS011;1320;48.128;11.592;2024-03-22T11:52:42;8.13;;;5.00;;
2620;SDS011;1320;48.128;11.592;2024-03-22T11:55:12;10.60;;;5.20;;
2620;SDS011;1320;48.128;11.592;2024-03-22T11:57:39;7.70;;;5.10;;
2620;SDS011;1320;48.128;11.592;2024-03-22T12:00:05;6.00;;;4.73;;
2620;SDS011;1320;48.128;11.592;2024-03-22T12:02:35;10.70;;;4.67;;
2620;SDS011;1320;48.128;11.592;2024-03-22T12:05:01;9.43;;;5.13;;
2620;SDS011;1320;48.128;11.592;2024-03-22T12:07:28;7.17;;;5.03;;
2620;SDS011;1320;48.128;11.592;2024-03-22T12:09:54;6.73;;;4.10;;
2620;SDS011;1320;48.128;11.592;2024-03-22T12:12:21;7.87;;;5.00;;
2620;SDS011;1320;48.128;11.592;2024-03-22T12:14:50;11.93;;;5.30;;
2620;SDS011;1320;48.128;11.592;2024-03-22T12:17:16;6.40;;;4.80;;
2620;SDS011;1320;48.128;11.592;2024-03-22T12:19:42;6.97;;;4.77;;
2620;SDS011;1320;48.128;11.592;2024-03-22T12:22:08;9.10;;;5.10;;
2620;SDS011;1320;48.128;11.592;2024-03-22T12:24:34;7.33;;;4.87;;
2620;SDS011;1320;48.128;11.592;2024-03-22T12:27:01;9.20;;;5.30;;
2620;SDS011;1320;48.128;11.592;2024-03-22T12:29:27;8.93;;;5.77;;
2620;SDS011;1320;48.128;11.592;2024-03-22T12:31:53;6.80;;;4.80;;
2620;SDS011;1320;48.128;11.592;2024-03-22T12:34:19;8.87;;;4.60;;
2620;SDS011;1320;48.128;11.592;2024-03-22T12:36:44;9.43;;;5.27;;
2620;SDS011;1320;48.128;11.592;2024-03-22T12:39:10;8.00;;;5.37;;
2620;SDS011;1320;48.128;11.592;2024-03-22T12:41:36;6.43;;;4.37;;
2620;SDS011;1320;48.128;11.592;2024-03-22T12:44:02;9.00;;;4.13;;
2620;SDS011;1320;48.128;11.592;2024-03-22T12:46:28;11.97;;;5.27;;
2620;SDS011;1320;48.128;11.592;2024-03-22T12:48:54;7.90;;;5.27;;
2620;SDS011;1320;48.128;11.592;2024-03-22T12:51:20;7.03;;;5.07;;
2620;SDS011;1320;48.128;11.592;2024-03-22T12:53:46;10.97;;;5.00;;
2620;SDS011;1320;48.128;11.592;2024-03-22T12:56:12;6.27;;;4.47;;
2620;SDS011;1320;48.128;11.592;2024-03-22T12:58:38;7.10;;;5.50;;
2620;SDS011;1320;48.128;11.592;2024-03-22T13:01:04;10.40;;;4.83;;
2620;SDS011;1320;48.128;11.592;2024-03-22T13:03:31;9.70;;;5.30;;
2620;SDS011;1320;48.128;11.592;2024-03-22T13:05:57;7.80;;;4.37;;
2620;SDS011;1320;48.128;11.592;2024-03-22T13:08:23;7.20;;;5.33;;
2620;SDS011;1320;48.128;11.592;2024-03-22T13:10:49;5.97;;;4.20;;
2620;SDS011;1320;48.128;11.592;2024-03-22T13:13:15;6.47;;;4.33;;
2620;SDS011;1320;48.128;11.592;2024-03-22T13:15:44;7.13;;;4.77;;
2620;SDS011;1320;48.128;11.592;2024-03-22T13:18:12;8.10;;;4.73;;
2620;SDS011;1320;48.128;11.592;2024-03-22T13:20:38;6.43;;;5.73;;
2620;SDS011;1320;48.128;11.592;2024-03-22T13:23:04;5.37;;;3.97;;
2620;SDS011;1320;48.128;11.592;2024-03-22T13:25:30;6.93;;;4.20;;
2620;SDS011;1320;48.128;11.592;2024-03-22T13:27:56;7.23;;;3.97;;
2620;SDS011;1320;48.128;11.592;2024-03-22T13:30:22;5.40;;;3.40;;
2620;SDS011;1320;48.128;11.592;2024-03-22T13:32:48;6.40;;;4.10;;
2620;SDS011;1320;48.128;11.592;2024-03-22T13:35:13;10.83;;;3.90;;
2620;SDS011;1320;48.128;11.592;2024-03-22T13:37:42;6.83;;;3.50;;
2620;SDS011;1320;48.128;11.592;2024-03-22T13:40:09;8.07;;;4.30;;
2620;SDS011;1320;48.128;11.592;2024-03-22T13:42:35;7.60;;;3.37;;
2620;SDS011;1320;48.128;11.592;2024-03-22T13:45:01;5.10;;;2.90;;
2620;SDS011;1320;48.128;11.592;2024-03-22T13:47:28;6.70;;;2.70;;
2620;SDS011;1320;48.128;11.592;2024-03-22T13:49:54;5.63;;;3.03;;
2620;SDS011;1320;48.128;11.592;2024-03-22T13:52:19;7.53;;;3.83;;
2620;SDS011;1320;48.128;11.592;2024-03-22T13:54:48;7.50;;;2.73;;
2620;SDS011;1320;48.128;11.592;2024-03-22T13:57:17;4.60;;;3.13;;
2620;SDS011;1320;48.128;11.592;2024-03-22T13:59:44;4.67;;;2.33;;
2620;SDS011;1320;48.128;11.592;2024-03-22T14:02:11;5.67;;;3.13;;
2620;SDS011;1320;48.128;11.592;2024-03-22T14:04:36;6.03;;;3.30;;
2620;SDS011;1320;48.128;11.592;2024-03-22T14:07:02;5.60;;;2.33;;
2620;SDS011;1320;48.128;11.592;2024-03-22T14:09:30;4.93;;;2.97;;
2620;SDS011;1320;48.128;11.592;2024-03-22T14:11:56;5.73;;;2.80;;
2620;SDS011;1320;48.128;11.592;2024-03-22T14:14:23;6.97;;;3.10;;
2620;SDS011;1320;48.128;11.592;2024-03-22T14:16:49;5.37;;;2.80;;
2620;SDS011;1320;48.128;11.592;2024-03-22T14:19:15;7.40;;;3.47;;
2620;SDS011;1320;48.128;11.592;2024-03-22T14:21:43;5.57;;;2.73;;
2620;SDS011;1320;48.128;11.592;2024-03-22T14:24:09;4.80;;;2.60;;
2620;SDS011;1320;48.128;11.592;2024-03-22T14:26:34;5.10;;;2.60;;
2620;SDS011;1320;48.128;11.592;2024-03-22T14:29:07;4.80;;;2.53;;
2620;SDS011;1320;48.128;11.592;2024-03-22T14:31:34;4.97;;;2.63;;
2620;SDS011;1320;48.128;11.592;2024-03-22T14:33:59;6.30;;;2.80;;
2620;SDS011;1320;48.128;11.592;2024-03-22T14:36:26;5.13;;;2.73;;
2620;SDS011;1320;48.128;11.592;2024-03-22T14:38:51;6.40;;;2.70;;
2620;SDS011;1320;48.128;11.592;2024-03-22T14:41:17;5.70;;;2.40;;
2620;SDS011;1320;48.128;11.592;2024-03-22T14:43:43;4.43;;;2.43;;